createdAt,value
2024-05-09T00:00:22.315Z,60.5204
2024-05-09T00:01:18.970Z,56.5478
2024-05-09T00:02:21.490Z,57.0307
2024-05-09T00:03:24.061Z,56.9258
2024-05-09T00:04:26.635Z,57.0171
2024-05-09T00:05:29.365Z,56.2370
2024-05-09T00:06:31.867Z,58.6058
2024-05-09T00:07:34.368Z,57.4083
2024-05-09T00:08:37.219Z,57.3908
2024-05-09T00:09:39.522Z,56.0202
2024-05-09T00:10:42.206Z,61.9683
2024-05-09T00:11:44.733Z,60.9107
2024-05-09T00:12:47.317Z,58.2937
2024-05-09T00:13:49.872Z,56.7418
2024-05-09T00:14:52.634Z,56.0846
2024-05-09T00:15:55.010Z,59.1315
2024-05-09T00:16:57.649Z,57.3243
2024-05-09T00:18:00.402Z,60.4420
2024-05-09T00:19:02.857Z,56.9147
2024-05-09T00:20:14.245Z,58.0577
2024-05-09T00:21:07.978Z,57.6751
2024-05-09T00:22:10.522Z,57.3807
2024-05-09T00:23:13.723Z,60.8536
2024-05-09T00:24:15.685Z,58.5553
2024-05-09T00:25:18.296Z,57.3191
2024-05-09T00:26:20.911Z,56.0241
2024-05-09T00:27:23.466Z,59.3248
2024-05-09T00:28:26.048Z,61.5885
2024-05-09T00:29:28.710Z,58.9617
2024-05-09T00:30:34.979Z,59.7359
2024-05-09T00:31:33.767Z,63.4920
2024-05-09T00:32:36.605Z,62.7381
2024-05-09T00:33:39.139Z,59.1955
2024-05-09T00:34:41.512Z,58.6835
2024-05-09T00:35:44.101Z,62.2230
2024-05-09T00:36:46.679Z,60.6526
2024-05-09T00:37:49.254Z,59.2267
2024-05-09T00:38:51.815Z,58.9104
2024-05-09T00:39:54.415Z,60.5370
2024-05-09T00:40:57.038Z,58.4772
2024-05-09T00:41:59.583Z,60.7087
2024-05-09T00:43:02.148Z,58.4119
2024-05-09T00:44:04.769Z,61.6944
2024-05-09T00:45:07.306Z,63.1506
2024-05-09T00:46:09.923Z,58.3670
2024-05-09T00:47:12.555Z,59.6388
2024-05-09T00:48:17.721Z,60.2748
2024-05-09T00:49:17.794Z,59.8436
2024-05-09T00:50:29.354Z,59.0776
2024-05-09T00:51:22.866Z,61.0138
2024-05-09T00:52:25.406Z,59.0784
2024-05-09T00:53:28.055Z,61.9434
2024-05-09T00:54:30.551Z,57.6178
2024-05-09T00:55:33.171Z,59.5173
2024-05-09T00:56:35.807Z,63.1406
2024-05-09T00:57:38.300Z,60.6886
2024-05-09T00:58:40.894Z,60.8744
2024-05-09T00:59:43.466Z,62.8057
2024-05-09T01:00:46.162Z,63.6159
2024-05-09T01:01:48.774Z,65.3871
2024-05-09T01:02:51.304Z,64.2864
2024-05-09T01:03:54.054Z,64.6058
2024-05-09T01:04:56.463Z,64.2036
2024-05-09T01:05:59.074Z,60.8681
2024-05-09T01:07:01.600Z,64.8525
2024-05-09T01:08:04.212Z,64.8222
2024-05-09T01:09:06.748Z,62.8511
2024-05-09T01:10:14.039Z,60.4719
2024-05-09T01:11:11.966Z,59.8882
2024-05-09T01:12:14.680Z,59.7974
2024-05-09T01:13:17.127Z,63.3913
2024-05-09T01:14:19.690Z,61.7982
2024-05-09T01:15:22.207Z,62.2348
2024-05-09T01:16:24.799Z,62.6139
2024-05-09T01:17:27.512Z,63.6858
2024-05-09T01:18:30.089Z,62.3605
2024-05-09T01:19:32.833Z,62.3510
2024-05-09T01:20:41.514Z,60.4812
2024-05-09T01:21:37.717Z,63.8102
2024-05-09T01:22:40.300Z,66.5982
2024-05-09T01:23:42.977Z,63.4804
2024-05-09T01:24:45.452Z,61.8476
2024-05-09T01:25:48.090Z,61.6626
2024-05-09T01:26:50.621Z,60.3658
2024-05-09T01:27:53.207Z,63.4409
2024-05-09T01:28:55.830Z,68.9741
2024-05-09T01:29:58.368Z,61.9025
2024-05-09T01:31:01.007Z,60.2280
2024-05-09T01:32:03.637Z,63.0366
2024-05-09T01:33:07.967Z,62.1316
2024-05-09T01:34:08.806Z,61.8893
2024-05-09T01:35:11.391Z,59.1339
2024-05-09T01:36:13.946Z,61.3247
2024-05-09T01:37:16.559Z,64.5786
2024-05-09T01:38:19.136Z,64.5604
2024-05-09T01:39:21.705Z,61.4192
2024-05-09T01:40:33.489Z,67.4568
2024-05-09T01:41:26.946Z,66.3057
2024-05-09T01:42:29.453Z,65.2001
2024-05-09T01:43:32.051Z,58.9821
2024-05-09T01:44:34.692Z,65.0907
2024-05-09T01:45:37.207Z,66.3582
2024-05-09T01:46:39.821Z,61.0346
2024-05-09T01:47:42.693Z,62.3660
2024-05-09T01:48:45.028Z,64.9235
2024-05-09T01:49:47.637Z,61.2718
2024-05-09T01:50:50.156Z,61.9806
2024-05-09T01:51:52.716Z,62.4264
2024-05-09T01:52:55.338Z,63.7343
2024-05-09T01:53:57.905Z,63.4551
2024-05-09T01:55:03.524Z,64.9271
2024-05-09T01:56:03.166Z,63.3033
2024-05-09T01:57:05.704Z,62.0450
2024-05-09T01:58:08.210Z,63.8142
2024-05-09T01:59:10.857Z,64.2381
2024-05-09T02:00:18.798Z,63.7818
2024-05-09T02:01:16.027Z,64.9653
2024-05-09T02:02:18.701Z,68.4350
2024-05-09T02:03:21.472Z,65.6980
2024-05-09T02:04:23.941Z,67.4782
2024-05-09T02:05:26.353Z,64.5608
2024-05-09T02:06:28.908Z,65.0900
2024-05-09T02:07:31.497Z,66.7668
2024-05-09T02:08:34.222Z,61.4282
2024-05-09T02:09:36.694Z,63.4698
2024-05-09T02:10:39.270Z,66.6314
2024-05-09T02:11:41.951Z,63.6977
2024-05-09T02:12:44.423Z,63.2961
2024-05-09T02:13:47.017Z,65.9305
2024-05-09T02:14:49.714Z,66.3135
2024-05-09T02:15:52.262Z,66.5580
2024-05-09T02:16:54.831Z,65.8630
2024-05-09T02:17:57.479Z,68.0091
2024-05-09T02:19:00.013Z,68.2613
2024-05-09T02:20:02.765Z,68.8961
2024-05-09T02:21:05.256Z,62.3345
2024-05-09T02:22:07.681Z,63.8653
2024-05-09T02:23:10.368Z,62.7226
2024-05-09T02:24:12.861Z,63.5779
2024-05-09T02:25:15.557Z,63.9569
2024-05-09T02:26:18.132Z,65.1247
2024-05-09T02:27:20.631Z,64.4361
2024-05-09T02:28:23.301Z,63.0161
2024-05-09T02:29:25.916Z,63.0184
2024-05-09T02:30:36.373Z,64.3799
2024-05-09T02:31:30.958Z,65.1976
2024-05-09T02:32:33.696Z,65.7072
2024-05-09T02:33:36.479Z,69.2931
2024-05-09T02:34:38.848Z,66.5361
2024-05-09T02:35:41.455Z,61.9272
2024-05-09T02:36:43.873Z,65.6942
2024-05-09T02:37:46.664Z,68.4144
2024-05-09T02:38:49.043Z,68.6814
2024-05-09T02:39:51.625Z,65.1991
2024-05-09T02:40:54.234Z,65.5969
2024-05-09T02:41:56.793Z,65.6701
2024-05-09T02:42:59.438Z,66.9621
2024-05-09T02:44:02.021Z,69.2671
2024-05-09T02:45:04.536Z,64.0913
2024-05-09T02:46:07.161Z,66.3111
2024-05-09T02:47:09.843Z,62.7396
2024-05-09T02:48:13.379Z,71.0556
2024-05-09T02:49:14.925Z,68.7083
2024-05-09T02:50:25.998Z,69.0631
2024-05-09T02:51:20.104Z,64.4590
2024-05-09T02:52:22.620Z,64.0962
2024-05-09T02:53:25.270Z,65.5070
2024-05-09T02:54:27.819Z,71.3606
2024-05-09T02:55:30.382Z,65.7082
2024-05-09T02:56:33.027Z,66.4039
2024-05-09T02:57:35.534Z,60.1728
2024-05-09T02:58:38.164Z,65.3238
2024-05-09T02:59:40.720Z,67.9846
2024-05-09T03:00:43.434Z,64.9669
2024-05-09T03:01:46.064Z,66.3235
2024-05-09T03:02:48.619Z,66.1981
2024-05-09T03:03:51.180Z,67.8515
2024-05-09T03:04:53.764Z,71.8577
2024-05-09T03:05:56.387Z,67.5939
2024-05-09T03:06:58.843Z,66.0350
2024-05-09T03:08:01.532Z,64.6148
2024-05-09T03:09:04.000Z,68.8258
2024-05-09T03:10:12.218Z,67.4124
2024-05-09T03:11:09.248Z,66.3995
2024-05-09T03:12:12.015Z,70.8846
2024-05-09T03:13:15.606Z,69.1762
2024-05-09T03:14:17.013Z,58.2954
2024-05-09T03:15:19.478Z,67.1259
2024-05-09T03:16:22.047Z,69.8429
2024-05-09T03:17:24.921Z,68.1293
2024-05-09T03:18:27.380Z,71.5675
2024-05-09T03:19:29.886Z,66.1559
2024-05-09T03:20:34.757Z,68.0346
2024-05-09T03:21:34.994Z,69.3707
2024-05-09T03:22:37.555Z,69.2037
2024-05-09T03:23:40.232Z,64.1248
2024-05-09T03:24:42.728Z,63.1328
2024-05-09T03:25:45.394Z,66.2025
2024-05-09T03:26:47.902Z,67.6797
2024-05-09T03:27:50.484Z,74.6543
2024-05-09T03:28:53.136Z,64.0439
2024-05-09T03:29:55.657Z,69.2923
2024-05-09T03:30:58.234Z,68.8893
2024-05-09T03:32:00.954Z,66.0206
2024-05-09T03:33:03.625Z,70.1419
2024-05-09T03:34:06.183Z,66.6883
2024-05-09T03:35:08.625Z,69.4932
2024-05-09T03:36:11.537Z,67.6510
2024-05-09T03:37:13.784Z,70.4190
2024-05-09T03:38:16.572Z,68.2321
2024-05-09T03:39:18.927Z,68.6348
2024-05-09T03:40:26.358Z,65.0737
2024-05-09T03:41:24.159Z,68.2150
2024-05-09T03:42:26.685Z,63.3925
2024-05-09T03:43:29.253Z,67.6871
2024-05-09T03:44:31.928Z,68.6959
2024-05-09T03:45:34.452Z,65.9116
2024-05-09T03:46:37.034Z,69.8416
2024-05-09T03:47:39.782Z,69.8538
2024-05-09T03:48:42.308Z,66.7397
2024-05-09T03:49:44.862Z,72.0524
2024-05-09T03:50:47.474Z,67.4344
2024-05-09T03:51:49.939Z,67.5412
2024-05-09T03:52:52.655Z,67.5939
2024-05-09T03:53:55.177Z,71.8298
2024-05-09T03:54:57.736Z,67.0422
2024-05-09T03:56:00.394Z,68.6150
2024-05-09T03:57:02.877Z,71.0016
2024-05-09T03:58:05.455Z,66.3067
2024-05-09T03:59:08.089Z,67.4229
2024-05-09T04:00:17.824Z,70.9907
2024-05-09T04:01:13.252Z,68.0107
2024-05-09T04:02:15.864Z,68.6822
2024-05-09T04:03:18.758Z,70.3468
2024-05-09T04:04:21.090Z,66.5836
2024-05-09T04:05:23.562Z,68.8366
2024-05-09T04:06:26.176Z,65.2070
2024-05-09T04:07:28.773Z,65.6334
2024-05-09T04:08:31.367Z,67.3008
2024-05-09T04:09:33.903Z,67.6572
2024-05-09T04:10:36.472Z,62.2024
2024-05-09T04:11:39.156Z,68.1112
2024-05-09T04:12:41.666Z,67.8815
2024-05-09T04:13:44.261Z,65.6382
2024-05-09T04:14:46.823Z,63.8245
2024-05-09T04:15:49.406Z,65.4188
2024-05-09T04:16:52.076Z,65.7083
2024-05-09T04:17:54.922Z,67.3247
2024-05-09T04:18:57.270Z,65.3304
2024-05-09T04:19:59.787Z,68.7092
2024-05-09T04:21:02.501Z,66.0462
2024-05-09T04:22:04.912Z,62.0756
2024-05-09T04:23:08.603Z,64.3931
2024-05-09T04:24:10.066Z,67.3739
2024-05-09T04:25:12.683Z,66.9782
2024-05-09T04:26:15.266Z,68.1724
2024-05-09T04:27:17.871Z,67.3688
2024-05-09T04:28:20.400Z,68.8865
2024-05-09T04:29:23.041Z,68.6222
2024-05-09T04:30:34.035Z,72.0694
2024-05-09T04:31:28.166Z,69.8077
2024-05-09T04:32:30.954Z,70.4397
2024-05-09T04:33:33.575Z,68.3105
2024-05-09T04:34:36.031Z,69.7388
2024-05-09T04:35:38.913Z,63.2794
2024-05-09T04:36:43.861Z,67.8088
2024-05-09T04:37:43.762Z,66.5383
2024-05-09T04:38:46.310Z,66.0210
2024-05-09T04:39:48.843Z,69.6288
2024-05-09T04:40:51.529Z,67.3636
2024-05-09T04:41:54.018Z,66.6325
2024-05-09T04:42:56.610Z,68.7488
2024-05-09T04:43:59.206Z,66.4519
2024-05-09T04:45:01.764Z,65.2074
2024-05-09T04:46:04.345Z,64.5963
2024-05-09T04:47:06.984Z,70.1219
2024-05-09T04:48:09.806Z,72.2984
2024-05-09T04:49:12.214Z,71.7275
2024-05-09T04:50:20.987Z,65.5235
2024-05-09T04:51:17.323Z,63.0182
2024-05-09T04:52:19.889Z,70.9091
2024-05-09T04:53:22.512Z,71.7964
2024-05-09T04:54:33.809Z,69.4622
2024-05-09T04:55:27.677Z,68.9397
2024-05-09T04:56:30.234Z,65.2161
2024-05-09T04:57:32.785Z,68.4435
2024-05-09T04:58:35.371Z,67.4919
2024-05-09T04:59:38.018Z,68.0886
2024-05-09T05:00:41.326Z,66.4848
2024-05-09T05:01:43.118Z,69.6517
2024-05-09T05:02:45.784Z,68.7771
2024-05-09T05:03:48.420Z,63.8663
2024-05-09T05:04:51.021Z,67.4220
2024-05-09T05:05:53.512Z,67.7254
2024-05-09T05:06:57.779Z,68.7822
2024-05-09T05:07:58.695Z,64.8667
2024-05-09T05:09:01.245Z,66.0138
2024-05-09T05:10:05.749Z,68.7683
2024-05-09T05:11:06.447Z,66.5699
2024-05-09T05:12:09.165Z,63.2072
2024-05-09T05:13:11.577Z,63.3713
2024-05-09T05:14:14.180Z,70.8932
2024-05-09T05:15:16.732Z,64.5661
2024-05-09T05:16:19.322Z,73.6284
2024-05-09T05:17:22.010Z,67.7101
2024-05-09T05:18:24.650Z,70.8764
2024-05-09T05:19:27.299Z,71.4073
2024-05-09T05:20:33.593Z,68.6088
2024-05-09T05:21:32.334Z,69.5959
2024-05-09T05:22:34.870Z,66.2958
2024-05-09T05:23:37.505Z,74.0240
2024-05-09T05:24:39.991Z,70.2867
2024-05-09T05:25:42.585Z,70.2288
2024-05-09T05:26:45.193Z,70.3075
2024-05-09T05:27:47.743Z,66.9245
2024-05-09T05:28:50.377Z,65.6662
2024-05-09T05:29:52.941Z,65.5539
2024-05-09T05:30:55.522Z,66.3217
2024-05-09T05:31:58.210Z,69.1361
2024-05-09T05:33:01.001Z,64.9270
2024-05-09T05:34:03.355Z,69.7264
2024-05-09T05:35:05.913Z,65.6512
2024-05-09T05:36:08.466Z,66.3751
2024-05-09T05:37:11.008Z,67.4699
2024-05-09T05:38:13.657Z,61.9214
2024-05-09T05:39:16.249Z,66.8753
2024-05-09T05:40:28.014Z,67.3658
2024-05-09T05:41:21.432Z,64.7026
2024-05-09T05:42:24.004Z,65.8010
2024-05-09T05:43:26.591Z,65.4226
2024-05-09T05:44:29.306Z,66.3972
2024-05-09T05:45:31.757Z,69.1873
2024-05-09T05:46:34.359Z,70.4570
2024-05-09T05:47:37.043Z,67.3023
2024-05-09T05:48:39.795Z,68.9601
2024-05-09T05:49:42.139Z,69.5599
2024-05-09T05:50:44.779Z,67.2207
2024-05-09T05:51:47.314Z,66.1146
2024-05-09T05:52:49.882Z,69.8662
2024-05-09T05:53:52.459Z,67.3443
2024-05-09T05:54:55.048Z,72.2547
2024-05-09T05:55:57.682Z,69.7603
2024-05-09T05:57:00.216Z,70.6555
2024-05-09T05:58:02.875Z,65.9130
2024-05-09T05:59:05.417Z,70.0665
2024-05-09T06:00:09.782Z,69.5741
2024-05-09T06:01:10.562Z,70.5148
2024-05-09T06:02:13.230Z,70.3929
2024-05-09T06:03:15.838Z,70.6496
2024-05-09T06:04:18.455Z,70.6950
2024-05-09T06:05:20.898Z,68.7348
2024-05-09T06:06:23.469Z,66.7119
2024-05-09T06:07:26.031Z,67.7225
2024-05-09T06:08:30.532Z,69.5116
2024-05-09T06:09:31.276Z,65.8066
2024-05-09T06:10:38.868Z,66.8441
2024-05-09T06:11:36.434Z,72.2236
2024-05-09T06:12:38.969Z,67.2513
2024-05-09T06:13:41.537Z,72.3312
2024-05-09T06:14:44.123Z,71.0866
2024-05-09T06:15:46.720Z,68.3233
2024-05-09T06:16:49.337Z,70.6508
2024-05-09T06:17:51.999Z,69.5863
2024-05-09T06:18:54.688Z,68.9056
2024-05-09T06:19:57.074Z,66.5018
2024-05-09T06:20:59.679Z,64.3477
2024-05-09T06:22:02.218Z,69.2092
2024-05-09T06:23:05.062Z,70.7571
2024-05-09T06:24:07.384Z,71.6922
2024-05-09T06:25:09.983Z,72.4740
2024-05-09T06:26:12.583Z,72.2687
2024-05-09T06:27:15.146Z,73.5167
2024-05-09T06:28:17.710Z,72.0002
2024-05-09T06:29:20.341Z,72.5561
2024-05-09T06:30:30.277Z,71.1249
2024-05-09T06:31:25.476Z,69.7660
2024-05-09T06:32:28.237Z,66.9613
2024-05-09T06:33:30.853Z,70.6100
2024-05-09T06:34:33.387Z,67.7421
2024-05-09T06:35:36.114Z,73.3743
2024-05-09T06:36:38.514Z,72.9337
2024-05-09T06:37:40.968Z,68.7543
2024-05-09T06:38:43.566Z,73.7531
2024-05-09T06:39:46.136Z,72.1959
2024-05-09T06:40:48.783Z,70.2217
2024-05-09T06:41:51.317Z,75.8394
2024-05-09T06:42:53.881Z,70.9296
2024-05-09T06:43:56.513Z,68.3760
2024-05-09T06:44:59.072Z,67.3931
2024-05-09T06:46:01.663Z,70.1442
2024-05-09T06:47:04.324Z,68.3076
2024-05-09T06:48:07.080Z,67.2813
2024-05-09T06:49:09.560Z,67.5917
2024-05-09T06:50:20.217Z,68.0042
2024-05-09T06:51:14.729Z,67.1985
2024-05-09T06:52:17.157Z,67.4251
2024-05-09T06:53:19.755Z,71.9673
2024-05-09T06:54:22.331Z,72.6912
2024-05-09T06:55:24.891Z,72.4806
2024-05-09T06:56:27.518Z,67.7438
2024-05-09T06:57:30.075Z,73.1576
2024-05-09T06:58:32.649Z,66.2129
2024-05-09T06:59:35.380Z,69.5816
2024-05-09T07:00:40.340Z,66.7232
2024-05-09T07:01:40.483Z,71.3498
2024-05-09T07:02:43.116Z,66.8459
2024-05-09T07:03:45.733Z,70.1972
2024-05-09T07:04:48.244Z,66.6192
2024-05-09T07:05:50.757Z,67.9392
2024-05-09T07:06:53.370Z,67.3686
2024-05-09T07:07:55.916Z,68.4698
2024-05-09T07:08:58.527Z,67.9915
2024-05-09T07:10:01.086Z,70.5340
2024-05-09T07:11:03.809Z,66.8539
2024-05-09T07:12:06.373Z,69.9421
2024-05-09T07:13:08.823Z,71.9281
2024-05-09T07:14:11.495Z,72.0117
2024-05-09T07:15:13.984Z,68.6590
2024-05-09T07:16:16.625Z,68.4304
2024-05-09T07:17:19.269Z,66.0603
2024-05-09T07:18:21.941Z,67.4800
2024-05-09T07:19:24.576Z,71.7790
2024-05-09T07:20:34.085Z,69.0816
2024-05-09T07:21:29.485Z,69.4584
2024-05-09T07:22:32.064Z,69.7235
2024-05-09T07:23:34.815Z,66.7869
2024-05-09T07:24:37.240Z,65.6901
2024-05-09T07:25:39.832Z,64.2038
2024-05-09T07:26:42.463Z,67.5599
2024-05-09T07:27:44.972Z,70.9995
2024-05-09T07:28:47.618Z,70.3450
2024-05-09T07:29:50.134Z,68.3831
2024-05-09T07:30:52.729Z,68.3022
2024-05-09T07:31:55.343Z,65.9041
2024-05-09T07:32:58.115Z,68.3260
2024-05-09T07:34:00.705Z,66.6153
2024-05-09T07:35:03.182Z,67.1045
2024-05-09T07:36:05.657Z,65.9822
2024-05-09T07:37:08.262Z,62.7357
2024-05-09T07:38:10.862Z,62.4377
2024-05-09T07:39:13.367Z,62.6680
2024-05-09T07:40:24.882Z,62.1301
2024-05-09T07:41:18.594Z,64.1544
2024-05-09T07:42:21.126Z,66.2980
2024-05-09T07:43:23.743Z,66.5535
2024-05-09T07:44:26.285Z,66.3218
2024-05-09T07:45:45.219Z,64.2341
2024-05-09T07:47:37.114Z,67.9705
2024-05-09T07:50:34.437Z,64.7445
2024-05-09T07:53:14.438Z,61.3508
2024-05-09T07:53:34.619Z,59.3392
2024-05-09T07:53:52.382Z,64.1211
2024-05-09T07:54:52.293Z,64.0074
2024-05-09T07:55:55.248Z,67.4624
2024-05-09T07:56:57.564Z,66.1356
2024-05-09T07:57:59.914Z,65.9227
2024-05-09T07:59:02.457Z,64.7011
2024-05-09T08:00:06.655Z,69.4218
2024-05-09T08:01:07.715Z,65.7552
2024-05-09T08:02:10.374Z,66.7873
2024-05-09T08:03:12.859Z,63.3973
2024-05-09T08:04:15.469Z,64.1563
2024-05-09T08:05:18.102Z,62.2066
2024-05-09T08:06:20.538Z,60.5341
2024-05-09T08:07:23.192Z,67.2648
2024-05-09T08:08:25.722Z,65.8795
2024-05-09T08:09:28.339Z,67.7994
2024-05-09T08:10:30.960Z,58.6236
2024-05-09T08:11:33.504Z,61.2980
2024-05-09T08:12:36.099Z,59.8398
2024-05-09T08:13:38.725Z,60.1744
2024-05-09T08:14:41.213Z,63.2713
2024-05-09T08:15:43.896Z,61.3130
2024-05-09T08:16:46.390Z,63.0894
2024-05-09T08:17:49.063Z,66.4263
2024-05-09T08:18:51.671Z,62.9499
2024-05-09T08:19:54.136Z,60.6633
2024-05-09T08:20:56.719Z,55.9035
2024-05-09T08:21:59.341Z,63.1572
2024-05-09T08:23:01.887Z,63.4150
2024-05-09T08:24:04.485Z,84.5224
2024-05-09T08:25:07.076Z,153.4421
2024-05-09T08:26:09.639Z,235.3234
2024-05-09T08:27:12.242Z,324.3411
2024-05-09T08:28:14.852Z,443.0100
2024-05-09T08:29:17.407Z,480.2451
2024-05-09T08:30:25.304Z,525.1340
2024-05-09T08:31:22.792Z,589.0085
2024-05-09T08:32:25.185Z,443.2457
2024-05-09T08:33:27.835Z,596.7875
2024-05-09T08:34:30.358Z,537.9054
2024-05-09T08:35:32.934Z,505.0122
2024-05-09T08:36:35.513Z,465.9569
2024-05-09T08:37:40.483Z,478.2144
2024-05-09T08:38:40.656Z,473.4744
2024-05-09T08:39:43.258Z,604.8174
2024-05-09T08:40:45.898Z,870.2044
2024-05-09T08:41:48.398Z,722.5803
2024-05-09T08:42:51.003Z,543.6501
2024-05-09T08:43:53.562Z,524.8174
2024-05-09T08:44:56.133Z,448.4932
2024-05-09T08:45:58.766Z,462.1363
2024-05-09T08:47:01.385Z,549.3152
2024-05-09T08:48:04.070Z,546.1234
2024-05-09T08:49:06.642Z,559.9511
2024-05-09T08:50:13.783Z,585.5249
2024-05-09T08:51:11.641Z,526.4191
2024-05-09T08:52:14.229Z,533.1437
2024-05-09T08:53:16.822Z,568.0325
2024-05-09T08:54:19.395Z,554.4370
2024-05-09T08:55:21.994Z,564.0641
2024-05-09T08:56:24.600Z,572.1387
2024-05-09T08:57:27.228Z,613.3538
2024-05-09T08:58:29.721Z,634.9465
2024-05-09T08:59:32.340Z,617.2695
2024-05-09T09:00:37.310Z,569.5252
2024-05-09T09:01:38.136Z,585.9689
2024-05-09T09:02:40.250Z,606.0668
2024-05-09T09:03:42.848Z,627.6087
2024-05-09T09:04:45.295Z,661.5074
2024-05-09T09:05:47.839Z,664.6860
2024-05-09T09:06:51.453Z,649.1917
2024-05-09T09:07:52.975Z,610.1442
2024-05-09T09:08:55.550Z,577.8546
2024-05-09T09:09:58.154Z,566.2517
2024-05-09T09:11:00.761Z,534.6285
2024-05-09T09:12:03.327Z,567.0924
2024-05-09T09:13:05.932Z,600.5723
2024-05-09T09:14:08.484Z,593.1246
2024-05-09T09:15:11.076Z,597.5898
2024-05-09T09:16:13.750Z,550.5654
2024-05-09T09:17:16.338Z,552.2172
2024-05-09T09:18:19.292Z,511.7174
2024-05-09T09:19:21.581Z,548.4696
2024-05-09T09:20:29.402Z,482.1149
2024-05-09T09:21:26.773Z,455.7515
2024-05-09T09:22:29.164Z,445.7461
2024-05-09T09:23:31.880Z,428.4531
2024-05-09T09:24:34.373Z,458.6605
2024-05-09T09:25:36.920Z,430.2785
2024-05-09T09:26:39.503Z,424.9561
2024-05-09T09:27:42.167Z,416.7123
2024-05-09T09:28:44.669Z,429.7476
2024-05-09T09:29:47.293Z,403.5291
2024-05-09T09:30:49.905Z,461.9824
2024-05-09T09:31:52.445Z,461.1641
2024-05-09T09:32:55.123Z,422.8147
2024-05-09T09:33:57.936Z,416.2301
2024-05-09T09:35:00.237Z,471.9042
2024-05-09T09:36:02.753Z,460.0595
2024-05-09T09:37:05.404Z,426.1872
2024-05-09T09:38:07.992Z,455.0419
2024-05-09T09:39:10.560Z,465.8926
2024-05-09T09:40:13.468Z,481.0625
2024-05-09T09:41:15.758Z,460.0771
2024-05-09T09:42:18.265Z,444.8064
2024-05-09T09:43:21.177Z,428.1910
2024-05-09T09:44:23.412Z,463.8993
2024-05-09T09:45:26.053Z,469.8749
2024-05-09T09:46:28.740Z,458.9452
2024-05-09T09:47:31.300Z,447.1339
2024-05-09T09:48:34.080Z,482.8196
2024-05-09T09:49:36.411Z,457.4034
2024-05-09T09:50:38.965Z,445.9910
2024-05-09T09:51:41.608Z,462.5673
2024-05-09T09:52:44.123Z,478.9059
2024-05-09T09:53:46.748Z,499.8353
2024-05-09T09:54:49.381Z,491.9170
2024-05-09T09:55:51.897Z,482.9726
2024-05-09T09:56:54.453Z,483.2683
2024-05-09T09:57:57.112Z,487.1288
2024-05-09T09:58:59.621Z,473.5505
2024-05-09T10:00:03.119Z,463.9439
2024-05-09T10:01:04.986Z,474.3133
2024-05-09T10:02:07.600Z,482.8970
2024-05-09T10:03:10.133Z,483.0282
2024-05-09T10:04:12.692Z,440.7480
2024-05-09T10:05:15.160Z,428.3985
2024-05-09T10:06:17.681Z,414.7088
2024-05-09T10:07:20.354Z,397.5372
2024-05-09T10:08:22.858Z,414.4548
2024-05-09T10:09:25.473Z,413.6348
2024-05-09T10:10:32.317Z,404.5186
2024-05-09T10:11:31.679Z,414.2610
2024-05-09T10:12:33.267Z,445.0880
2024-05-09T10:13:35.863Z,439.2491
2024-05-09T10:14:38.342Z,411.4436
2024-05-09T10:15:40.966Z,389.4081
2024-05-09T10:16:43.528Z,377.7487
2024-05-09T10:17:46.150Z,391.6995
2024-05-09T10:18:48.861Z,394.3993
2024-05-09T10:19:51.389Z,379.3018
2024-05-09T10:20:53.826Z,388.4535
2024-05-09T10:21:56.427Z,360.6703
2024-05-09T10:22:59.055Z,361.4913
2024-05-09T10:24:01.583Z,334.2231
2024-05-09T10:25:05.108Z,346.4965
2024-05-09T10:26:06.748Z,364.2253
2024-05-09T10:27:09.400Z,354.0211
2024-05-09T10:28:12.081Z,345.2517
2024-05-09T10:29:14.517Z,365.0484
2024-05-09T10:30:25.816Z,395.4626
2024-05-09T10:31:19.683Z,419.3121
2024-05-09T10:32:22.363Z,407.6174
2024-05-09T10:33:24.987Z,406.1636
2024-05-09T10:34:27.632Z,374.5213
2024-05-09T10:35:30.023Z,350.3821
2024-05-09T10:36:32.644Z,331.3920
2024-05-09T10:37:35.236Z,312.1752
2024-05-09T10:38:37.748Z,358.0535
2024-05-09T10:39:40.359Z,355.6850
2024-05-09T10:40:42.964Z,347.0383
2024-05-09T10:41:45.493Z,358.4333
2024-05-09T10:42:48.183Z,334.5412
2024-05-09T10:43:50.705Z,332.0367
2024-05-09T10:44:53.338Z,343.4420
2024-05-09T10:45:55.856Z,347.5010
2024-05-09T10:46:58.437Z,356.6782
2024-05-09T10:48:01.163Z,351.4491
2024-05-09T10:49:06.294Z,328.2643
2024-05-09T10:50:12.710Z,331.5697
2024-05-09T10:51:08.744Z,362.0476
2024-05-09T10:52:11.350Z,361.5009
2024-05-09T10:53:13.895Z,349.0528
2024-05-09T10:54:16.509Z,329.4890
2024-05-09T10:55:19.285Z,316.8753
2024-05-09T10:56:21.663Z,316.1558
2024-05-09T10:57:24.230Z,312.2852
2024-05-09T10:58:26.805Z,292.3659
2024-05-09T10:59:29.400Z,318.8161
2024-05-09T11:00:35.863Z,339.8725
2024-05-09T11:01:34.639Z,341.7183
2024-05-09T11:02:37.291Z,341.4267
2024-05-09T11:03:40.127Z,335.8149
2024-05-09T11:04:42.485Z,342.8727
2024-05-09T11:05:45.094Z,338.3003
2024-05-09T11:06:47.532Z,339.0576
2024-05-09T11:07:50.071Z,338.8416
2024-05-09T11:08:52.649Z,328.5797
2024-05-09T11:09:55.301Z,336.2473
2024-05-09T11:10:57.855Z,328.0931
2024-05-09T11:12:00.463Z,330.6800
2024-05-09T11:13:03.048Z,333.1230
2024-05-09T11:14:05.565Z,305.3125
2024-05-09T11:15:08.180Z,318.1357
2024-05-09T11:16:10.801Z,312.5185
2024-05-09T11:17:13.322Z,313.1099
2024-05-09T11:18:16.063Z,307.3178
2024-05-09T11:19:18.673Z,304.5545
2024-05-09T11:20:26.942Z,314.2781
2024-05-09T11:21:23.652Z,312.9949
2024-05-09T11:22:26.289Z,299.5532
2024-05-09T11:23:28.804Z,316.1207
2024-05-09T11:24:31.407Z,312.5272
2024-05-09T11:25:33.975Z,307.7226
2024-05-09T11:26:36.612Z,300.1470
2024-05-09T11:27:39.184Z,314.4081
2024-05-09T11:28:41.734Z,319.7200
2024-05-09T11:29:44.315Z,320.1921
2024-05-09T11:30:46.983Z,307.4766
2024-05-09T11:31:49.668Z,314.9379
2024-05-09T11:32:52.298Z,315.4741
2024-05-09T11:33:54.846Z,321.8712
2024-05-09T11:34:57.244Z,308.2502
2024-05-09T11:35:59.823Z,309.9955
2024-05-09T11:37:02.494Z,303.0617
2024-05-09T11:38:04.995Z,299.5513
2024-05-09T11:39:07.593Z,292.2291
2024-05-09T11:40:16.814Z,288.3997
2024-05-09T11:41:12.774Z,301.2379
2024-05-09T11:42:15.326Z,292.2227
2024-05-09T11:43:18.053Z,294.6042
2024-05-09T11:44:20.523Z,298.4148
2024-05-09T11:45:23.148Z,290.6842
2024-05-09T11:46:25.819Z,296.3854
2024-05-09T11:47:28.289Z,299.6097
2024-05-09T11:48:31.148Z,286.9530
2024-05-09T11:49:33.563Z,285.5809
2024-05-09T11:50:36.444Z,287.8681
2024-05-09T11:51:38.637Z,281.9180
2024-05-09T11:52:41.164Z,285.4726
2024-05-09T11:53:43.762Z,289.9727
2024-05-09T11:54:46.381Z,282.1099
2024-05-09T11:55:48.946Z,283.0753
2024-05-09T11:56:51.604Z,275.6358
2024-05-09T11:57:54.097Z,278.0826
2024-05-09T11:58:56.664Z,269.1213
2024-05-09T11:59:59.249Z,268.8442
2024-05-09T12:01:01.979Z,265.2292
2024-05-09T12:02:04.589Z,267.4355
2024-05-09T12:03:07.099Z,273.3611
2024-05-09T12:04:09.699Z,265.6150
2024-05-09T12:05:12.246Z,268.3288
2024-05-09T12:06:14.769Z,276.3459
2024-05-09T12:07:17.439Z,273.1576
2024-05-09T12:08:19.934Z,267.0821
2024-05-09T12:09:22.494Z,268.7737
2024-05-09T12:10:32.125Z,265.6811
2024-05-09T12:11:27.703Z,266.7697
2024-05-09T12:12:30.302Z,253.7972
2024-05-09T12:13:32.957Z,257.1120
2024-05-09T12:14:35.447Z,265.2803
2024-05-09T12:15:38.879Z,261.8626
2024-05-09T12:16:40.653Z,247.6899
2024-05-09T12:17:43.288Z,252.7837
2024-05-09T12:18:45.904Z,249.0803
2024-05-09T12:19:48.419Z,242.9289
2024-05-09T12:20:50.949Z,252.8891
2024-05-09T12:21:53.553Z,256.5398
2024-05-09T12:22:56.099Z,243.7449
2024-05-09T12:23:58.679Z,237.0836
2024-05-09T12:25:01.316Z,232.6523
2024-05-09T12:26:03.868Z,244.2149
2024-05-09T12:27:06.457Z,226.0735
2024-05-09T12:28:09.198Z,227.1304
2024-05-09T12:29:11.622Z,222.6541
2024-05-09T12:30:20.729Z,225.6770
2024-05-09T12:31:16.807Z,228.1390
2024-05-09T12:32:19.420Z,238.3152